createdAt,value
2023-01-21T00:00:53.546Z,100723.75
2023-01-21T00:10:54.813Z,100723.16
2023-01-21T00:20:56.048Z,100729.94
2023-01-21T00:30:57.442Z,100735.47
2023-01-21T00:40:58.736Z,100743.66
2023-01-21T00:51:00.851Z,100748.78
2023-01-21T01:01:02.658Z,100759.88
2023-01-21T01:11:03.932Z,100766.69
2023-01-21T01:21:05.181Z,100770.09
2023-01-21T01:31:06.556Z,100794.22
2023-01-21T01:41:07.907Z,100808.09
2023-01-21T01:51:09.259Z,100819.03
2023-01-21T02:01:10.562Z,100832.81
2023-01-21T02:11:11.859Z,100850.09
2023-01-21T02:21:13.076Z,100847.75
2023-01-21T02:31:14.406Z,100851.69
2023-01-21T02:41:15.762Z,100869.34
2023-01-21T02:51:17.000Z,100870.38
2023-01-21T03:01:18.262Z,100876.94
2023-01-21T03:11:19.482Z,100893.34
2023-01-21T03:21:20.699Z,100890.56
2023-01-21T03:31:21.917Z,100906.31
2023-01-21T03:41:23.199Z,100917.06
2023-01-21T03:51:24.401Z,100919.19
2023-01-21T04:01:25.640Z,100933.16
2023-01-21T04:11:26.880Z,100940.94
2023-01-21T04:21:28.125Z,100959.75
2023-01-21T04:31:29.379Z,100975.31
2023-01-21T04:41:30.663Z,100986.81
2023-01-21T04:51:31.867Z,100990.78
2023-01-21T05:01:33.159Z,101007.19
2023-01-21T05:11:34.399Z,101021.19
2023-01-21T05:21:35.632Z,101026.41
2023-01-21T05:31:36.989Z,101035.25
2023-01-21T05:41:38.410Z,101051.13
2023-01-21T05:51:39.646Z,101069.19
2023-01-21T06:01:40.894Z,101091.06
2023-01-21T06:11:42.129Z,101106.19
2023-01-21T06:21:43.355Z,101110.44
2023-01-21T06:31:44.698Z,101132.91
2023-01-21T06:41:46.053Z,101141.13
2023-01-21T06:51:47.289Z,101162.56
2023-01-21T07:01:48.612Z,101167.13
2023-01-21T07:11:49.983Z,101175.66
2023-01-21T07:21:51.204Z,101196.66
2023-01-21T07:31:52.456Z,101190.00
2023-01-21T07:41:53.907Z,101210.69
2023-01-21T07:51:55.143Z,101224.63
2023-01-21T08:01:57.921Z,101235.84
2023-01-21T08:11:59.280Z,101244.00
2023-01-21T08:22:00.591Z,101250.72
2023-01-21T08:32:01.913Z,101258.06
2023-01-21T08:42:03.411Z,101257.09
2023-01-21T08:52:04.757Z,101264.75
2023-01-21T09:02:06.021Z,101286.53
2023-01-21T09:12:07.364Z,101283.78
2023-01-21T09:22:09.405Z,101296.28
2023-01-21T09:32:10.934Z,101302.50
2023-01-21T09:42:12.285Z,101310.81
2023-01-21T09:52:13.532Z,101320.09
2023-01-21T10:02:14.811Z,101324.84
2023-01-21T10:12:16.030Z,101325.47
2023-01-21T10:22:17.271Z,101313.97
2023-01-21T10:32:18.485Z,101309.63
2023-01-21T10:42:19.703Z,101316.06
2023-01-21T10:52:20.924Z,101303.94
2023-01-21T11:02:23.296Z,101302.56
2023-01-21T11:12:24.886Z,101294.38
2023-01-21T11:22:27.345Z,101285.84
2023-01-21T11:32:28.560Z,101294.13
2023-01-21T11:42:29.792Z,101281.91
2023-01-21T11:52:31.066Z,101278.34
2023-01-21T12:02:32.388Z,101304.28
2023-01-21T12:12:33.614Z,101305.44
2023-01-21T12:22:34.890Z,101300.84
2023-01-21T12:32:37.312Z,101293.44
2023-01-21T12:42:38.620Z,101290.59
2023-01-21T12:52:39.889Z,101291.69
2023-01-21T13:02:41.146Z,101299.78
2023-01-21T13:12:42.509Z,101295.94
2023-01-21T13:22:43.718Z,101294.28
2023-01-21T13:32:45.040Z,101301.94
2023-01-21T13:42:47.608Z,101292.81
2023-01-21T13:52:48.873Z,101299.59
2023-01-21T14:02:50.129Z,101308.75
2023-01-21T14:12:51.378Z,101317.47
2023-01-21T14:22:52.755Z,101328.97
2023-01-21T14:32:53.970Z,101320.63
2023-01-21T14:42:55.234Z,101325.78
2023-01-21T14:52:56.467Z,101338.44
2023-01-21T15:02:57.744Z,101341.97
2023-01-21T15:12:58.952Z,101340.34
2023-01-21T15:23:00.159Z,101357.25
2023-01-21T15:33:02.036Z,101352.09
2023-01-21T15:43:03.550Z,101359.34
2023-01-21T15:53:04.869Z,101354.94
2023-01-21T16:03:06.090Z,101359.53
2023-01-21T16:13:07.317Z,101367.25
2023-01-21T16:23:08.589Z,101386.13
2023-01-21T16:33:10.113Z,101382.69
2023-01-21T16:43:11.371Z,101385.47
2023-01-21T16:53:12.629Z,101390.28
2023-01-21T17:03:13.853Z,101392.97
2023-01-21T17:13:15.858Z,101395.53
2023-01-21T17:23:17.075Z,101398.22
2023-01-21T17:33:18.326Z,101403.78
2023-01-21T17:43:19.544Z,101403.28
2023-01-21T17:53:21.159Z,101405.25
2023-01-21T18:03:22.456Z,101414.81
2023-01-21T18:13:23.669Z,101413.91
2023-01-21T18:23:24.868Z,101412.75
2023-01-21T18:33:26.219Z,101411.69
2023-01-21T18:43:27.453Z,101410.75
2023-01-21T18:53:28.698Z,101414.13
2023-01-21T19:03:29.905Z,101406.69
2023-01-21T19:13:31.136Z,101399.75
2023-01-21T19:23:32.469Z,101400.38
2023-01-21T19:33:33.674Z,101387.72
2023-01-21T19:43:34.969Z,101400.06
2023-01-21T19:53:36.213Z,101400.97
2023-01-21T20:03:38.807Z,101402.22
2023-01-21T20:13:41.286Z,101405.88
2023-01-21T20:23:42.631Z,101404.13
2023-01-21T20:33:44.220Z,101407.22
2023-01-21T20:43:46.773Z,101395.13
2023-01-21T20:53:48.042Z,101397.59
2023-01-21T21:03:49.430Z,101384.06
2023-01-21T21:13:52.411Z,101383.56
2023-01-21T21:23:54.091Z,101387.06
2023-01-21T21:33:55.447Z,101390.03
2023-01-21T21:43:56.667Z,101379.81
2023-01-21T21:53:57.890Z,101373.38
2023-01-21T22:03:59.124Z,101366.31
2023-01-21T22:14:04.337Z,101365.75
2023-01-21T22:24:08.049Z,101365.03
2023-01-21T22:34:09.349Z,101356.19
2023-01-21T22:44:10.750Z,101346.97
2023-01-21T22:54:12.044Z,101332.97
2023-01-21T23:04:14.766Z,101322.34
2023-01-21T23:14:17.173Z,101317.81
2023-01-21T23:24:18.471Z,101305.88
2023-01-21T23:34:22.638Z,101298.94
2023-01-21T23:44:25.466Z,101291.53
2023-01-21T23:54:26.713Z,101274.63
